METAR Data
IDs: Format: Raw Decoded Include TAF

Data at: 0626 UTC 19 Aug 2019

KFSO 190616Z AUTO 20005KT 10SM CLR 23/21 A2987 RMK AO2 T02310213
KFSO 190556Z AUTO 20004KT 10SM CLR 23/21 A2987 RMK AO2 T02330210 10252 20220
KFSO 190535Z AUTO 19004KT 10SM CLR 24/21 A2986 RMK AO2 T02350210
KFSO 190515Z AUTO 19005KT 10SM CLR 23/21 A2985 RMK AO2 T02340210
KFSO 190456Z AUTO 17004KT 10SM CLR 23/21 A2985 RMK AO2 T02280209 403000187
KFSO 190435Z AUTO 16005KT 10SM CLR 22/21 A2986 RMK AO2 T02210208
KFSO 190416Z AUTO 00000KT 10SM CLR 22/21 A2986 RMK AO2 T02210208
KFSO 190355Z AUTO 15004KT 10SM SCT075 SCT085 23/21 A2987 RMK AO2 T02250209
KFSO 190336Z AUTO 00000KT 10SM SCT075 23/21 A2987 RMK AO2 T02280207
KFSO 190315Z AUTO 17003KT 10SM SCT080 23/21 A2989 RMK AO2 T02340206
KFSO 190256Z AUTO 00000KT 10SM SCT060 SCT070 OVC080 24/21 A2990 RMK AO2 T02380205
KFSO 190236Z AUTO 00000KT 10SM SCT060 BKN070 OVC100 24/20 A2990 RMK AO2 T02430203
KFSO 190215Z AUTO 16005KT 10SM SCT060 OVC100 24/22 A2990 RMK AO2 T02420224
KFSO 190156Z AUTO 12003KT 10SM BKN060 OVC075 24/23 A2990 RMK AO2 T02420226
KFSO 190135Z AUTO 12003KT 10SM BKN075 BKN120 24/23 A2990 RMK AO2 T02400228
KFSO 190116Z AUTO 00000KT 10SM SCT110 24/22 A2990 RMK AO2 T02380224
KFSO 190055Z AUTO 00000KT 10SM SCT075 SCT095 BKN110 24/23 A2990 RMK AO2 T02430228
KFSO 190036Z AUTO 00000KT 10SM BKN075 OVC100 25/23 A2991 RMK AO2 T02450230
KFSO 190016Z AUTO 00000KT 10SM BKN075 OVC110 25/23 A2991 RMK AO2 T02470230
KFSO 182355Z AUTO 00000KT 10SM SCT075 BKN110 25/23 A2992 RMK AO2 T02530230 10300 20253
KFSO 182336Z AUTO 00000KT 10SM SCT110 26/23 A2992 RMK AO2 T02580229
KFSO 182315Z AUTO 00000KT 10SM BKN070 BKN080 OVC110 26/23 A2992 RMK AO2 T02570231
KFSO 182256Z AUTO 00000KT 10SM BKN070 OVC080 26/23 A2994 RMK AO2 T02600232
KFSO 182235Z AUTO 00000KT 10SM BKN080 OVC090 26/23 A2993 RMK AO2 T02600232
KFSO 182216Z AUTO 00000KT 10SM OVC080 26/23 A2994 RMK AO2 T02610229
KFSO 182156Z AUTO 00000KT 10SM BKN080 BKN100 27/22 A2994 RMK AO2 T02700223
KFSO 182136Z AUTO 00000KT 10SM SCT095 28/22 A2994 RMK AO2 T02750222
KFSO 182116Z AUTO 00000KT 10SM SCT095 28/23 A2995 RMK AO2 T02810229
KFSO 182055Z AUTO 00000KT 10SM CLR 28/23 A2994 RMK AO2 T02830228
KFSO 182035Z AUTO 00000KT 10SM CLR 28/23 A2994 RMK AO2 T02780234
KFSO 182015Z AUTO 32003KT 10SM CLR 29/23 A2994 RMK AO2 T02860226
KFSO 181955Z AUTO 00000KT 10SM CLR 28/22 A2995 RMK AO2 T02820219
KFSO 181936Z AUTO 17003KT 10SM CLR 30/22 A2995 RMK AO2 T02980223
KFSO 181916Z AUTO 00000KT 10SM CLR 28/22 A2996 RMK AO2 T02840217
KFSO 181855Z AUTO 24004KT 10SM CLR 28/22 A2997 RMK AO2 T02820218
KFSO 181836Z AUTO 25004KT 10SM CLR 28/22 A2998 RMK AO2 T02790218
KFSO 181815Z AUTO 23004KT 10SM CLR 28/22 A2997 RMK AO2 T02810219
KFSO 181756Z AUTO 23003KT 10SM SCT020 SCT026 SCT039 28/22 A2998 RMK AO2 T02780221 10283 20201
KFSO 181735Z AUTO 24003KT 10SM SCT024 SCT039 28/21 A2997 RMK AO2 T02830209
KFSO 181716Z AUTO 19007KT 10SM SCT022 28/21 A2998 RMK AO2 T02810210
KFSO 181656Z AUTO 17004KT 10SM SCT019 27/21 A2997 RMK AO2 T02720211
KFSO 181635Z AUTO 21004KT 10SM SCT017 SCT023 SCT034 27/21 A2998 RMK AO2 T02650210
KFSO 181615Z AUTO 21005KT 10SM BKN018 BKN027 BKN032 26/21 A2999 RMK AO2 T02550211
KFSO 181555Z AUTO 21003KT 10SM SCT020 OVC028 26/21 A3000 RMK AO2 T02560205
KFSO 181535Z AUTO 19003KT 10SM SCT020 BKN027 BKN032 26/20 A3000 RMK AO2 T02590203
KFSO 181515Z AUTO 13003KT 10SM SCT018 BKN025 26/20 A3000 RMK AO2 T02550198
KFSO 181456Z AUTO 16005KT 10SM OVC025 25/20 A3001 RMK AO2 T02490200
KFSO 181435Z AUTO 17003KT 10SM OVC025 24/20 A3001 RMK AO2 T02390200
KFSO 181416Z AUTO 16004KT 10SM OVC025 23/20 A3001 RMK AO2 T02310200
KFSO 181356Z AUTO 17005KT 10SM OVC023 22/20 A3002 RMK AO2 T02210196
KFSO 181336Z AUTO 20005KT 10SM OVC023 22/20 A3002 RMK AO2 T02230197
KFSO 181315Z AUTO 20005KT 10SM BKN023 BKN048 23/20 A3001 RMK AO2 T02250196
KFSO 181256Z AUTO 18005KT 10SM SCT025 22/20 A3001 RMK AO2 T02210198
KFSO 181235Z AUTO 18004KT 10SM BKN028 21/20 A3001 RMK AO2 T02130200
KFSO 181215Z AUTO 20003KT 10SM OVC028 20/19 A3001 RMK AO2 T02030194
KFSO 181155Z AUTO 17005KT 10SM OVC024 20/19 A3000 RMK AO2 T02000193 10200 20187
KFSO 181135Z AUTO 19005KT 10SM OVC024 20/19 A2999 RMK AO2 T01980190
KFSO 181116Z AUTO 17003KT 10SM OVC026 20/19 A2999 RMK AO2 T01990191
KFSO 181055Z AUTO 00000KT 10SM BKN026 20/19 A2998 RMK AO2 T01950187
KFSO 181036Z AUTO 00000KT 10SM CLR 19/18 A2998 RMK AO2 T01870180
KFSO 181015Z AUTO 18003KT 10SM CLR 19/18 A2998 RMK AO2 T01890181
KFSO 180956Z AUTO 17004KT 10SM SCT041 19/19 A2997 RMK AO2 T01940186
KFSO 180935Z AUTO 18004KT 10SM SCT039 20/19 A2998 RMK AO2 T01950188
KFSO 180916Z AUTO 19004KT 10SM SCT004 OVC039 20/19 A2999 RMK AO2 T01970190
KFSO 180856Z AUTO 19004KT 10SM BKN006 OVC037 20/19 A2998 RMK AO2 T01990191
KFSO 180836Z AUTO 19006KT 10SM SCT006 OVC065 20/19 A2998 RMK AO2 T01990191
KFSO 180815Z AUTO 19005KT 10SM SCT006 SCT040 BKN055 20/19 A2998 RMK AO2 T01990191
KFSO 180756Z AUTO 19006KT 10SM SCT040 BKN055 20/19 A2997 RMK AO2 T01980191
KFSO 180736Z AUTO 20006KT 10SM OVC055 20/19 A2997 RMK AO2 T01980191
KFSO 180715Z AUTO 20003KT 10SM SCT055 20/19 A2997 RMK AO2 T01970190
KFSO 180656Z AUTO 20004KT 10SM CLR 20/19 A2997 RMK AO2 T01980191
KFSO 180635Z AUTO 19004KT 10SM SCT060 20/19 A2997 RMK AO2 T01980191
KFSO 180615Z AUTO 20005KT 10SM SCT060 20/19 A2997 RMK AO2 T01990191
KFSO 180555Z AUTO 19006KT 10SM CLR 20/19 A2997 RMK AO2 T01980191 10222 20197
KFSO 180535Z AUTO 20005KT 10SM CLR 20/19 A2996 RMK AO2 T01980190
KFSO 180515Z AUTO 20004KT 10SM CLR 20/19 A2996 RMK AO2 T01980191
KFSO 180455Z AUTO 19006KT 10SM CLR 20/19 A2995 RMK AO2 T02000193 403030200
KFSO 180436Z AUTO 20004KT 10SM CLR 20/19 A2995 RMK AO2 T02000193
KFSO 180416Z AUTO 19003KT 10SM CLR 20/19 A2995 RMK AO2 T02010193
KFSO 180355Z AUTO 21004KT 10SM CLR 20/19 A2995 RMK AO2 T02000193
KFSO 180335Z AUTO 20003KT 10SM SCT080 20/19 A2995 RMK AO2 T02000193
KFSO 180316Z AUTO 00000KT 10SM SCT080 20/20 A2995 RMK AO2 T02010195
KFSO 180255Z AUTO 00000KT 7SM BKN080 21/20 A2995 RMK AO2 T02050197
KFSO 180236Z AUTO 00000KT 10SM SCT100 21/20 A2995 RMK AO2 T02080200
KFSO 180215Z AUTO 17003KT 10SM SCT110 21/20 A2995 RMK AO2 T02100203
KFSO 180156Z AUTO 14003KT 7SM BKN100 21/21 A2995 RMK AO2 T02120205
KFSO 180136Z AUTO 16004KT 7SM SCT100 21/20 A2995 RMK AO2 T02090201
KFSO 180115Z AUTO 00000KT 10SM SCT100 21/21 A2994 RMK AO2 T02120205
KFSO 180055Z AUTO 10003KT 10SM CLR 22/21 A2994 RMK AO2 T02160208
KFSO 180036Z AUTO 00000KT 10SM CLR 22/21 A2993 RMK AO2 T02170207
KFSO 180016Z AUTO 19003KT 10SM SCT035 SCT060 SCT085 22/21 A2994 RMK AO2 T02200210
KFSO 172355Z AUTO 18005KT 5SM -RA SCT013 BKN020 OVC080 22/21 A2993 RMK AO2 T02230213 10303 20220
KFSO 172336Z AUTO 22006KT 4SM +RA SCT013 BKN020 OVC047 24/22 A2995 RMK AO2 T02360216
KFSO 172315Z AUTO 00000KT 10SM SCT030 BKN036 OVC050 24/22 A2993 RMK AO2 T02380218
KFSO 172256Z AUTO 00000KT 10SM BKN040 BKN050 OVC075 24/22 A2993 RMK AO2 T02410221
KFSO 172235Z AUTO 00000KT 10SM SCT044 BKN055 BKN075 24/22 A2993 RMK AO2 T02420215
KFSO 172215Z AUTO 00000KT 10SM -RA SCT042 SCT055 BKN080 25/21 A2994 RMK AO2 T02470210
KFSO 172156Z AUTO 27003KT 10SM SCT090 25/22 A2994 RMK AO2 T02500215
KFSO 172135Z AUTO 00000KT 10SM CLR 26/20 A2990 RMK AO2 T02570203
KFSO 172116Z AUTO 17003KT 10SM CLR 26/20 A2992 RMK AO2 T02600201
KFSO 172055Z AUTO 20003KT 10SM SCT065 26/20 A2993 RMK AO2 T02630200
KFSO 172036Z AUTO 19005KT 10SM SCT055 SCT065 27/19 A2994 RMK AO2 T02700194
KFSO 172016Z AUTO 22005KT 10SM SCT055 28/21 A2994 RMK AO2 T02810206
KFSO 171955Z AUTO 19005KT 10SM CLR 28/20 A2994 RMK AO2 T02800204
KFSO 171935Z AUTO 20004KT 10SM CLR 29/21 A2993 RMK AO2 T02880211
KFSO 171915Z AUTO 19003KT 10SM CLR 29/21 A2994 RMK AO2 T02890207
KFSO 171855Z AUTO 18006KT 10SM CLR 30/21 A2995 RMK AO2 T02960211
KFSO 171835Z AUTO 18006KT 10SM CLR 30/20 A2995 RMK AO2 T02950203